Time;durP1;ratioP1;P1;durP2;ratioP2;P2;SDS_P1;SDS_P2;PMS_P1;PMS_P2;Temp;Humidity;BMP_temperature;BMP_pressure;BME280_temperature;BME280_humidity;BME280_pressure;Samples;Min_cycle;Max_cycle;Signal;HPM_P1;HPM_P2
2023/07/07 00:01:24;;;;;;;1.88;1.45;;;21.90;59.50;;;;;;6270143;28;20384;-70
2023/07/07 00:04:24;;;;;;;2.03;1.45;;;21.90;59.60;;;;;;6270248;28;20043;-70
2023/07/07 00:07:25;;;;;;;1.88;1.23;;;21.90;59.50;;;;;;6269566;28;20017;-70
2023/07/07 00:10:26;;;;;;;2.35;1.60;;;21.90;59.50;;;;;;6270162;28;20465;-70
2023/07/07 00:13:27;;;;;;;2.33;1.60;;;21.90;59.60;;;;;;6269444;28;20021;-69
2023/07/07 00:16:28;;;;;;;1.88;1.30;;;21.90;59.50;;;;;;6269747;28;20096;-70
2023/07/07 00:19:33;;;;;;;1.55;1.05;;;21.80;59.50;;;;;;6269642;28;20036;-69
2023/07/07 00:22:35;;;;;;;2.78;1.63;;;21.80;59.50;;;;;;6269576;28;20115;-70
2023/07/07 00:25:35;;;;;;;2.35;1.70;;;21.80;59.50;;;;;;6269589;28;20029;-70
2023/07/07 00:28:36;;;;;;;3.50;1.73;;;21.90;59.60;;;;;;6269270;28;20409;-70
2023/07/07 00:31:36;;;;;;;1.67;1.38;;;21.80;59.50;;;;;;6269133;28;20102;-70
2023/07/07 00:34:37;;;;;;;2.05;1.52;;;21.80;59.50;;;;;;6269204;28;20480;-70
2023/07/07 00:37:37;;;;;;;2.00;1.58;;;21.80;59.50;;;;;;6269068;28;20047;-70
2023/07/07 00:40:38;;;;;;;1.60;1.10;;;21.80;59.60;;;;;;6269397;28;20037;-70
2023/07/07 00:43:39;;;;;;;1.63;1.20;;;21.80;59.60;;;;;;6269002;28;20025;-70
2023/07/07 00:46:40;;;;;;;2.03;1.30;;;21.80;59.60;;;;;;6269321;28;20043;-70
2023/07/07 00:49:41;;;;;;;2.35;1.50;;;21.80;59.60;;;;;;6268290;28;20025;-69
2023/07/07 00:52:43;;;;;;;2.40;1.40;;;21.80;59.60;;;;;;6269113;28;20125;-70
2023/07/07 00:55:50;;;;;;;1.90;1.30;;;21.80;59.60;;;;;;6243392;28;20622;-70
2023/07/07 00:58:52;;;;;;;1.40;1.13;;;21.80;59.60;;;;;;6252741;28;20033;-70
2023/07/07 01:02:00;;;;;;;2.15;1.30;;;21.80;59.60;;;;;;6268143;28;20732;-70
2023/07/07 01:05:03;;;;;;;2.88;1.38;;;21.80;59.60;;;;;;6268513;28;20029;-70
2023/07/07 01:08:06;;;;;;;2.28;1.30;;;21.80;59.60;;;;;;6268400;28;20079;-69
2023/07/07 01:11:07;;;;;;;1.80;1.50;;;21.80;60.40;;;;;;6268807;28;20499;-70
2023/07/07 01:14:13;;;;;;;2.42;1.30;;;21.80;59.60;;;;;;6262019;28;20041;-70
2023/07/07 01:17:17;;;;;;;1.92;1.52;;;21.80;59.60;;;;;;6268942;28;20035;-69
2023/07/07 01:20:21;;;;;;;1.75;1.48;;;21.80;59.60;;;;;;6268203;28;20025;-69
2023/07/07 01:23:59;;;;;;;2.03;1.55;;;21.80;59.60;;;;;;6268126;28;20029;-70
2023/07/07 01:27:00;;;;;;;1.58;1.20;;;21.80;59.60;;;;;;6267850;28;20031;-70
2023/07/07 01:30:16;;;;;;;1.92;1.30;;;21.80;59.60;;;;;;6268008;28;20487;-70
2023/07/07 01:33:22;;;;;;;3.17;1.48;;;21.80;59.60;;;;;;6268000;28;20523;-70
2023/07/07 01:36:22;;;;;;;1.48;1.27;;;21.80;59.70;;;;;;6267913;28;20037;-70
2023/07/07 01:39:25;;;;;;;2.92;1.70;;;21.80;59.60;;;;;;6262937;28;20111;-70
2023/07/07 01:42:46;;;;;;;1.77;1.30;;;21.80;59.70;;;;;;6268101;28;20048;-70
2023/07/07 01:46:01;;;;;;;2.05;1.50;;;21.80;59.60;;;;;;6267249;28;20025;-69
2023/07/07 01:49:13;;;;;;;1.27;1.10;;;21.80;59.60;;;;;;6268009;28;20032;-70
2023/07/07 01:52:20;;;;;;;3.35;1.45;;;21.80;59.60;;;;;;6267548;28;20559;-70
2023/07/07 01:55:32;;;;;;;2.03;1.40;;;21.80;59.70;;;;;;6267282;28;20036;-70
2023/07/07 01:58:34;;;;;;;1.63;1.15;;;21.80;59.60;;;;;;6267615;28;20029;-70
2023/07/07 02:01:35;;;;;;;1.63;1.23;;;21.80;59.70;;;;;;6267314;28;20036;-70
2023/07/07 02:04:36;;;;;;;1.85;1.38;;;21.80;59.70;;;;;;6267115;28;20035;-70
2023/07/07 02:07:36;;;;;;;1.88;1.40;;;21.80;59.70;;;;;;6267603;28;20033;-70
2023/07/07 02:10:37;;;;;;;1.92;1.33;;;21.80;59.70;;;;;;6267219;28;20028;-70
2023/07/07 02:13:38;;;;;;;2.13;1.55;;;21.80;59.70;;;;;;6267057;28;20729;-70
2023/07/07 02:16:38;;;;;;;2.25;1.10;;;21.80;59.70;;;;;;6264059;28;20028;-70
2023/07/07 02:19:39;;;;;;;2.25;1.40;;;21.80;59.70;;;;;;6267476;28;20043;-71
2023/07/07 02:22:39;;;;;;;1.70;1.40;;;21.80;59.60;;;;;;6266962;28;20033;-70
2023/07/07 02:25:40;;;;;;;3.35;1.50;;;21.80;59.70;;;;;;6266761;28;20037;-70
2023/07/07 02:28:41;;;;;;;2.30;1.52;;;21.80;59.60;;;;;;6266974;28;20060;-69
2023/07/07 02:31:41;;;;;;;2.35;1.60;;;21.80;59.70;;;;;;6266979;28;20064;-70
2023/07/07 02:34:47;;;;;;;1.95;1.55;;;21.80;59.70;;;;;;6267102;28;20025;-71
2023/07/07 02:37:48;;;;;;;1.63;1.20;;;21.80;59.70;;;;;;6267056;28;20025;-70
2023/07/07 02:40:49;;;;;;;2.08;1.25;;;21.80;59.70;;;;;;6267000;28;20096;-70
2023/07/07 02:43:49;;;;;;;1.52;1.27;;;21.80;59.70;;;;;;6266417;28;20025;-70
2023/07/07 02:46:50;;;;;;;2.45;1.30;;;21.80;59.70;;;;;;6266664;28;20028;-70
2023/07/07 02:49:50;;;;;;;1.08;0.98;;;21.80;59.70;;;;;;6266775;28;20017;-70
2023/07/07 02:52:51;;;;;;;1.73;1.30;;;21.80;59.70;;;;;;6267304;28;20031;-70
2023/07/07 02:55:52;;;;;;;1.38;1.20;;;21.80;59.70;;;;;;6266534;28;20051;-70
2023/07/07 02:58:53;;;;;;;1.60;1.17;;;21.80;59.70;;;;;;6260429;28;20056;-70
2023/07/07 03:01:54;;;;;;;3.00;1.45;;;21.80;59.70;;;;;;6266844;28;20056;-69
2023/07/07 03:04:54;;;;;;;2.22;1.40;;;21.80;59.70;;;;;;6266492;28;20037;-70
2023/07/07 03:07:55;;;;;;;2.03;1.20;;;21.80;59.70;;;;;;6267141;28;20075;-70
2023/07/07 03:10:55;;;;;;;1.58;1.38;;;21.80;59.70;;;;;;6266904;28;20105;-70
2023/07/07 03:13:56;;;;;;;1.65;1.30;;;21.80;59.70;;;;;;6266512;28;20018;-70
2023/07/07 03:16:57;;;;;;;1.83;1.40;;;21.80;59.70;;;;;;6266649;28;20025;-70
2023/07/07 03:19:58;;;;;;;1.52;1.10;;;21.80;59.70;;;;;;6270461;28;20036;-70
2023/07/07 03:22:59;;;;;;;1.73;1.23;;;21.80;59.70;;;;;;6271343;28;20025;-70
2023/07/07 03:26:11;;;;;;;1.40;1.13;;;21.80;59.70;;;;;;6270825;28;20040;-70
2023/07/07 03:29:12;;;;;;;1.80;1.58;;;21.80;59.70;;;;;;6270361;28;20493;-70
2023/07/07 03:32:13;;;;;;;1.80;1.50;;;21.80;59.70;;;;;;6270680;28;20049;-70
2023/07/07 03:35:13;;;;;;;1.63;1.27;;;21.80;59.70;;;;;;6252769;28;20021;-70
2023/07/07 03:38:14;;;;;;;1.80;1.35;;;21.80;59.70;;;;;;6270543;28;20411;-70
2023/07/07 03:41:21;;;;;;;1.90;1.33;;;21.80;59.70;;;;;;6271028;28;20037;-69
2023/07/07 03:44:23;;;;;;;1.92;1.52;;;21.80;59.80;;;;;;6270310;28;20037;-70
2023/07/07 03:47:23;;;;;;;1.73;1.00;;;21.80;59.70;;;;;;6270677;28;20124;-70
2023/07/07 03:50:24;;;;;;;1.48;1.17;;;21.80;59.70;;;;;;6270606;28;20254;-69
2023/07/07 03:53:26;;;;;;;1.67;1.30;;;21.80;59.70;;;;;;6271068;28;20028;-70
2023/07/07 03:56:26;;;;;;;1.10;0.98;;;21.70;59.70;;;;;;6264579;28;20021;-69
2023/07/07 04:03:24;;;;;;;1.52;1.30;;;21.80;59.70;;;;;;6271023;28;20120;-70
2023/07/07 04:06:24;;;;;;;1.20;1.00;;;21.80;59.70;;;;;;6266860;28;20098;-70
2023/07/07 04:09:25;;;;;;;1.65;1.35;;;21.80;59.70;;;;;;6269806;28;20036;-70
2023/07/07 04:12:26;;;;;;;1.60;1.30;;;21.80;59.70;;;;;;6270693;28;20014;-69
2023/07/07 04:15:26;;;;;;;1.85;1.40;;;21.80;59.70;;;;;;6252207;28;20029;-70
2023/07/07 04:18:28;;;;;;;1.38;1.17;;;21.80;59.70;;;;;;6270177;28;20031;-70
2023/07/07 04:21:30;;;;;;;1.10;1.00;;;21.80;59.70;;;;;;6251833;28;20040;-70
2023/07/07 04:24:30;;;;;;;1.90;1.25;;;21.80;59.70;;;;;;6269822;28;20037;-70
2023/07/07 04:27:32;;;;;;;1.38;1.10;;;21.80;59.70;;;;;;6263426;28;20392;-70
2023/07/07 04:30:33;;;;;;;1.23;1.10;;;21.80;59.70;;;;;;6268390;28;20041;-70
2023/07/07 04:33:35;;;;;;;1.67;1.30;;;21.70;59.70;;;;;;6269925;28;20057;-70
2023/07/07 04:36:35;;;;;;;1.95;1.20;;;21.80;59.70;;;;;;6269440;28;20052;-70
2023/07/07 04:39:36;;;;;;;1.67;1.35;;;21.80;59.70;;;;;;6282118;28;20383;-70
2023/07/07 04:42:36;;;;;;;1.33;1.10;;;21.80;59.70;;;;;;6269818;28;20025;-70
2023/07/07 04:45:37;;;;;;;2.15;1.23;;;21.80;59.70;;;;;;6270072;28;20029;-70
2023/07/07 04:48:38;;;;;;;1.48;1.20;;;21.80;59.80;;;;;;6269213;28;20049;-69
2023/07/07 04:51:40;;;;;;;2.15;1.35;;;21.80;59.70;;;;;;6269731;28;20033;-70
2023/07/07 04:54:41;;;;;;;2.05;1.13;;;21.80;59.70;;;;;;6244910;28;20226;-70
2023/07/07 04:57:41;;;;;;;1.77;1.23;;;21.80;59.70;;;;;;6234580;28;20020;-70
2023/07/07 05:00:42;;;;;;;1.33;1.20;;;21.80;59.70;;;;;;6268735;28;20075;-70
2023/07/07 05:03:44;;;;;;;1.52;1.20;;;21.80;59.80;;;;;;6260675;28;20024;-70
2023/07/07 05:06:45;;;;;;;1.58;1.15;;;21.80;59.70;;;;;;6268971;28;20041;-69
2023/07/07 05:09:45;;;;;;;1.42;1.13;;;21.80;59.80;;;;;;6268655;28;20472;-70
2023/07/07 05:12:46;;;;;;;1.73;1.30;;;21.80;59.80;;;;;;6268380;28;20108;-70
2023/07/07 05:15:47;;;;;;;1.60;1.13;;;21.80;59.80;;;;;;6268575;28;20029;-70
2023/07/07 05:18:48;;;;;;;1.88;1.30;;;21.80;59.70;;;;;;6263689;28;20021;-69
2023/07/07 05:21:48;;;;;;;1.90;1.50;;;21.80;59.80;;;;;;6250915;28;20033;-70
2023/07/07 05:24:49;;;;;;;1.70;1.15;;;21.80;59.80;;;;;;6267443;28;20064;-70
2023/07/07 05:27:50;;;;;;;2.10;1.30;;;21.80;59.80;;;;;;6266214;28;20035;-70
2023/07/07 05:30:50;;;;;;;1.27;1.08;;;21.80;59.70;;;;;;6267048;28;20057;-70
2023/07/07 05:33:51;;;;;;;1.25;1.10;;;21.80;59.80;;;;;;6268163;28;20118;-70
2023/07/07 05:36:51;;;;;;;1.63;1.40;;;21.80;59.80;;;;;;6251045;28;20032;-70
2023/07/07 05:39:52;;;;;;;2.42;1.42;;;21.80;59.80;;;;;;6253920;28;20035;-70
2023/07/07 05:42:54;;;;;;;2.08;1.52;;;21.80;59.80;;;;;;6266825;28;20507;-70
2023/07/07 05:45:56;;;;;;;4.38;1.42;;;21.80;59.70;;;;;;6267422;28;20146;-70
2023/07/07 05:48:56;;;;;;;1.83;1.30;;;21.70;59.50;;;;;;6249225;28;20060;-70
2023/07/07 05:51:57;;;;;;;3.13;1.90;;;21.80;59.60;;;;;;6267362;28;20114;-69
2023/07/07 05:54:58;;;;;;;3.72;2.17;;;21.80;59.60;;;;;;6269422;28;20367;-69
2023/07/07 05:58:00;;;;;;;2.97;1.77;;;21.80;59.60;;;;;;6265607;28;20765;-70
2023/07/07 06:01:00;;;;;;;3.63;1.90;;;21.70;59.50;;;;;;6261570;28;20373;-70
2023/07/07 06:04:01;;;;;;;2.13;1.30;;;21.80;59.60;;;;;;6269133;28;20033;-70
2023/07/07 06:07:02;;;;;;;1.60;1.27;;;21.70;59.50;;;;;;6265368;28;20075;-70
2023/07/07 06:10:03;;;;;;;2.65;1.67;;;21.80;59.70;;;;;;6266068;28;20017;-70
2023/07/07 06:13:03;;;;;;;2.45;1.60;;;21.80;59.70;;;;;;6269150;28;20491;-70
2023/07/07 06:16:05;;;;;;;1.55;1.30;;;21.80;59.70;;;;;;6270029;28;20021;-70
2023/07/07 06:19:06;;;;;;;2.03;1.50;;;21.80;59.70;;;;;;6269571;28;20454;-70
2023/07/07 06:22:07;;;;;;;1.83;1.45;;;21.80;59.70;;;;;;6269795;28;20163;-70
2023/07/07 06:25:08;;;;;;;1.50;1.40;;;21.70;59.60;;;;;;6269374;28;20047;-70
2023/07/07 06:28:09;;;;;;;1.40;1.30;;;21.80;59.70;;;;;;6269874;28;20029;-70
2023/07/07 06:31:10;;;;;;;1.40;1.30;;;21.70;59.60;;;;;;6268970;28;20059;-70
2023/07/07 06:34:10;;;;;;;1.95;1.35;;;21.80;59.70;;;;;;6269584;28;20601;-70
2023/07/07 06:37:11;;;;;;;1.10;1.00;;;21.70;59.70;;;;;;6264858;28;20037;-70
2023/07/07 06:40:12;;;;;;;1.75;1.27;;;21.70;59.70;;;;;;6269837;28;20025;-70
2023/07/07 06:43:17;;;;;;;2.97;1.40;;;21.80;59.70;;;;;;6269320;28;20021;-70
2023/07/07 06:46:23;;;;;;;1.23;1.13;;;21.80;59.80;;;;;;6268922;28;20082;-70
2023/07/07 06:49:23;;;;;;;1.45;1.20;;;21.80;59.80;;;;;;6269507;28;20418;-70
2023/07/07 06:52:24;;;;;;;2.22;1.60;;;21.80;59.80;;;;;;6269354;28;20083;-70
2023/07/07 06:55:25;;;;;;;1.65;1.20;;;21.70;59.70;;;;;;6274139;28;20471;-70
2023/07/07 06:58:25;;;;;;;2.20;1.30;;;21.80;59.70;;;;;;6273788;28;20028;-70
2023/07/07 07:01:26;;;;;;;1.92;1.25;;;21.70;59.70;;;;;;6274001;28;20029;-70
2023/07/07 07:04:28;;;;;;;1.70;1.25;;;21.70;59.70;;;;;;6273883;28;20033;-70
2023/07/07 07:07:30;;;;;;;1.70;1.10;;;21.70;59.70;;;;;;6273890;28;20376;-70
2023/07/07 07:10:30;;;;;;;1.90;1.38;;;21.70;59.70;;;;;;6273511;28;20502;-70
2023/07/07 07:13:31;;;;;;;2.28;1.40;;;21.70;59.70;;;;;;6268726;28;20078;-70
2023/07/07 07:16:32;;;;;;;1.42;1.20;;;21.80;59.80;;;;;;6273531;28;20418;-70
2023/07/07 07:19:33;;;;;;;1.80;1.30;;;21.70;59.70;;;;;;6272334;28;20029;-70
2023/07/07 07:22:33;;;;;;;1.50;1.30;;;21.70;59.70;;;;;;6256468;28;20107;-70
2023/07/07 07:25:34;;;;;;;2.45;1.25;;;21.70;59.70;;;;;;6268761;28;20048;-70
2023/07/07 07:28:34;;;;;;;1.67;1.40;;;21.80;59.80;;;;;;6271588;28;20395;-70
2023/07/07 07:31:35;;;;;;;2.22;1.45;;;21.70;59.70;;;;;;6256180;28;20057;-70
2023/07/07 07:34:36;;;;;;;1.23;1.13;;;21.70;59.70;;;;;;6255032;28;20021;-70
2023/07/07 07:37:36;;;;;;;2.10;1.50;;;21.70;59.70;;;;;;6272229;28;20065;-70
2023/07/07 07:40:37;;;;;;;1.55;1.20;;;21.70;59.70;;;;;;6269385;28;20056;-70
2023/07/07 07:43:38;;;;;;;1.60;1.20;;;21.70;59.70;;;;;;6245507;28;20112;-70
2023/07/07 07:46:38;;;;;;;1.20;1.10;;;21.70;59.70;;;;;;6246376;28;20417;-70
2023/07/07 07:49:39;;;;;;;1.83;1.33;;;21.70;59.70;;;;;;6254456;28;20029;-70
2023/07/07 07:52:40;;;;;;;1.05;0.95;;;21.70;59.70;;;;;;6256625;28;20025;-69
2023/07/07 07:55:40;;;;;;;1.92;1.33;;;21.70;59.70;;;;;;6268336;28;20028;-70
2023/07/07 07:58:41;;;;;;;4.35;1.20;;;21.80;60.40;;;;;;6271654;28;20109;-72
2023/07/07 08:01:42;;;;;;;3.38;1.15;;;21.80;59.90;;;;;;6253857;28;20040;-71
2023/07/07 08:04:42;;;;;;;1.23;0.93;;;21.90;60.30;;;;;;6271430;28;20033;-69
2023/07/07 08:07:43;;;;;;;1.30;1.00;;;21.90;60.00;;;;;;6252261;28;20124;-71
2023/07/07 08:10:44;;;;;;;2.10;1.42;;;22.00;60.00;;;;;;6270861;28;20028;-69
2023/07/07 08:13:44;;;;;;;17.35;4.55;;;22.10;59.90;;;;;;6271267;28;20041;-70
2023/07/07 08:16:46;;;;;;;5.25;1.88;;;22.20;59.60;;;;;;6256716;28;20033;-68
2023/07/07 08:19:47;;;;;;;15.15;2.88;;;22.30;59.40;;;;;;6270233;28;20119;-69
2023/07/07 08:22:48;;;;;;;11.65;3.80;;;22.30;59.50;;;;;;6270609;28;20376;-69
2023/07/07 08:25:48;;;;;;;12.05;2.83;;;22.30;59.40;;;;;;6257549;28;20094;-70
2023/07/07 08:28:49;;;;;;;12.40;3.40;;;22.30;59.40;;;;;;6270528;28;20032;-69
2023/07/07 08:31:50;;;;;;;22.80;3.97;;;22.40;59.70;;;;;;6271067;28;20087;-71
2023/07/07 08:34:52;;;;;;;18.42;4.25;;;22.40;59.70;;;;;;6271200;28;20083;-71
2023/07/07 08:37:53;;;;;;;12.50;3.42;;;22.50;59.70;;;;;;6270951;28;20513;-69
2023/07/07 08:40:55;;;;;;;31.38;5.40;;;22.60;59.40;;;;;;6271017;28;20027;-69
2023/07/07 08:43:56;;;;;;;27.58;7.68;;;22.50;59.50;;;;;;6270709;28;20025;-69
2023/07/07 08:47:20;;;;;;;28.95;6.93;;;22.50;59.60;;;;;;6270098;28;20105;-69
2023/07/07 08:50:49;;;;;;;31.30;7.38;;;22.40;59.70;;;;;;6247920;28;20033;-68
2023/07/07 08:53:58;;;;;;;27.30;6.07;;;22.40;59.70;;;;;;6256818;28;20136;-69
2023/07/07 08:57:06;;;;;;;20.30;4.97;;;22.40;59.70;;;;;;6270757;28;20095;-69
2023/07/07 09:00:26;;;;;;;21.13;6.10;;;22.40;59.70;;;;;;6270046;28;20024;-68
2023/07/07 09:03:52;;;;;;;22.13;5.55;;;22.40;59.70;;;;;;6269328;28;20553;-69
2023/07/07 09:07:07;;;;;;;16.33;4.88;;;22.30;59.60;;;;;;6263054;28;20580;-69
2023/07/07 09:10:26;;;;;;;16.00;4.70;;;22.40;59.60;;;;;;6270013;28;20503;-70
2023/07/07 09:13:30;;;;;;;25.23;5.28;;;22.40;59.70;;;;;;6269816;28;20052;-69
2023/07/07 09:16:36;;;;;;;18.33;5.03;;;22.40;59.60;;;;;;6261183;28;20028;-70
2023/07/07 09:19:42;;;;;;;20.38;5.25;;;22.40;60.00;;;;;;6269593;28;20021;-70
2023/07/07 09:22:50;;;;;;;18.48;4.65;;;22.40;59.90;;;;;;6256962;28;20032;-70
2023/07/07 09:25:58;;;;;;;18.77;4.45;;;22.50;58.20;;;;;;6268746;28;20064;-70
2023/07/07 09:29:02;;;;;;;23.92;5.70;;;22.50;56.70;;;;;;6269210;28;20021;-69
2023/07/07 09:32:03;;;;;;;19.40;4.82;;;22.60;56.40;;;;;;6269613;28;20063;-70
2023/07/07 09:35:10;;;;;;;25.38;7.07;;;22.70;55.60;;;;;;6255313;28;20087;-71
2023/07/07 09:38:31;;;;;;;24.40;6.28;;;22.80;55.20;;;;;;6269713;28;20029;-70
2023/07/07 09:41:58;;;;;;;26.92;6.50;;;22.90;54.50;;;;;;6262169;28;20040;-70
2023/07/07 09:45:25;;;;;;;31.40;6.38;;;23.00;54.50;;;;;;6268713;28;20043;-70
2023/07/07 09:48:38;;;;;;;25.58;7.32;;;23.10;53.70;;;;;;6269354;28;20021;-70
2023/07/07 09:52:00;;;;;;;29.77;6.93;;;23.10;54.00;;;;;;6242173;28;20033;-70
2023/07/07 09:55:02;;;;;;;27.60;6.57;;;23.00;54.00;;;;;;6268657;28;20035;-70
2023/07/07 09:58:15;;;;;;;32.83;7.70;;;23.00;54.00;;;;;;6268805;28;20025;-71
2023/07/07 10:01:16;;;;;;;20.48;6.75;;;23.10;53.90;;;;;;6268234;28;20025;-71
2023/07/07 10:04:19;;;;;;;21.73;6.13;;;23.30;53.20;;;;;;6268688;28;20459;-73
2023/07/07 10:07:22;;;;;;;22.63;6.28;;;23.40;52.90;;;;;;6263160;28;20124;-70
2023/07/07 10:10:22;;;;;;;25.27;6.88;;;23.40;52.40;;;;;;6261319;28;20115;-70
2023/07/07 10:13:23;;;;;;;29.85;7.20;;;23.30;53.70;;;;;;6267988;28;20303;-70
2023/07/07 10:16:30;;;;;;;40.40;8.68;;;23.20;53.20;;;;;;6256154;28;20029;-70
2023/07/07 10:19:34;;;;;;;30.90;6.97;;;23.20;53.50;;;;;;6264082;28;20048;-72
2023/07/07 10:22:35;;;;;;;26.88;7.40;;;23.20;53.40;;;;;;6268404;28;20032;-70
2023/07/07 10:25:36;;;;;;;26.95;6.53;;;23.20;53.40;;;;;;6267701;28;20447;-70
2023/07/07 10:28:36;;;;;;;32.42;8.02;;;23.10;53.20;;;;;;6261003;28;20473;-70
2023/07/07 10:31:42;;;;;;;20.55;6.20;;;23.20;53.30;;;;;;6273617;28;20140;-70
2023/07/07 10:34:46;;;;;;;19.10;6.90;;;23.20;53.10;;;;;;6273213;28;20039;-70
2023/07/07 10:37:47;;;;;;;20.83;6.45;;;23.20;53.10;;;;;;6273629;28;20017;-70
2023/07/07 10:40:48;;;;;;;19.23;6.07;;;23.10;53.10;;;;;;6273231;28;20024;-70
2023/07/07 10:43:49;;;;;;;15.80;5.85;;;23.20;53.00;;;;;;6273251;28;20021;-70
2023/07/07 10:46:49;;;;;;;17.05;5.97;;;23.20;52.90;;;;;;6270096;28;20495;-70
2023/07/07 10:49:50;;;;;;;20.20;6.10;;;23.10;52.70;;;;;;6258154;28;20052;-70
2023/07/07 10:53:13;;;;;;;19.40;6.03;;;23.20;52.70;;;;;;6273582;28;20503;-70
2023/07/07 10:56:53;;;;;;;25.48;5.53;;;23.20;52.70;;;;;;6226249;28;20052;-70
2023/07/07 11:00:02;;;;;;;18.98;5.35;;;23.10;53.00;;;;;;6266685;28;20064;-70
2023/07/07 11:03:44;;;;;;;18.02;5.15;;;23.20;52.60;;;;;;6273233;28;20028;-71
2023/07/07 11:07:22;;;;;;;23.10;5.55;;;23.30;52.10;;;;;;6260921;28;20124;-71
2023/07/07 11:10:47;;;;;;;24.00;6.10;;;23.50;51.50;;;;;;6271959;28;20032;-69
2023/07/07 11:14:42;;;;;;;16.90;5.97;;;23.50;51.70;;;;;;6272168;28;20052;-70
2023/07/07 11:18:04;;;;;;;26.52;5.90;;;23.30;51.90;;;;;;6233104;28;20185;-69
2023/07/07 11:21:13;;;;;;;27.45;6.47;;;23.30;52.10;;;;;;6255467;28;20103;-69
2023/07/07 11:24:25;;;;;;;21.58;6.28;;;23.30;52.30;;;;;;6271161;28;20033;-69
2023/07/07 11:27:32;;;;;;;23.65;6.25;;;23.20;52.00;;;;;;6267597;28;20435;-69
2023/07/07 11:31:11;;;;;;;20.85;5.82;;;23.20;52.10;;;;;;6268577;28;20080;-69
2023/07/07 11:34:19;;;;;;;20.05;6.28;;;23.20;51.80;;;;;;6236319;28;20052;-69
2023/07/07 11:37:54;;;;;;;21.27;6.13;;;23.30;51.80;;;;;;6270983;28;20059;-69
2023/07/07 11:41:18;;;;;;;13.17;5.03;;;23.30;51.60;;;;;;6264010;28;20484;-69
2023/07/07 11:44:34;;;;;;;17.35;5.28;;;23.30;51.50;;;;;;6253313;28;20060;-69
2023/07/07 11:47:57;;;;;;;15.88;5.47;;;23.30;51.40;;;;;;6270440;28;20423;-69
2023/07/07 11:51:03;;;;;;;18.92;4.78;;;23.30;51.20;;;;;;6270981;28;20110;-69
2023/07/07 11:54:13;;;;;;;13.23;4.68;;;23.30;51.20;;;;;;6245874;28;20025;-68
2023/07/07 11:57:16;;;;;;;23.05;5.55;;;23.30;51.20;;;;;;6255291;28;20040;-69
2023/07/07 12:00:53;;;;;;;13.05;4.93;;;23.30;51.20;;;;;;6270668;28;20020;-69
2023/07/07 12:04:19;;;;;;;15.95;5.18;;;23.30;51.20;;;;;;6271070;28;20025;-69
2023/07/07 12:07:31;;;;;;;15.40;4.90;;;23.30;51.30;;;;;;6270793;28;20023;-69
2023/07/07 12:10:43;;;;;;;18.80;4.68;;;23.30;51.60;;;;;;6270728;28;20040;-69
2023/07/07 12:14:02;;;;;;;12.65;4.05;;;23.20;51.60;;;;;;6266626;28;20485;-69
2023/07/07 12:17:05;;;;;;;13.50;4.68;;;23.20;51.70;;;;;;6250248;28;20027;-69
2023/07/07 12:20:15;;;;;;;13.07;4.78;;;23.20;51.60;;;;;;6271113;28;20024;-69
2023/07/07 12:23:21;;;;;;;14.45;4.55;;;23.20;51.70;;;;;;6270156;28;20060;-69
2023/07/07 12:26:29;;;;;;;12.73;4.50;;;23.20;51.50;;;;;;6270398;28;20033;-69
2023/07/07 12:29:30;;;;;;;11.32;4.05;;;23.20;51.50;;;;;;6269170;28;20118;-70
2023/07/07 12:32:31;;;;;;;9.70;3.83;;;23.20;51.50;;;;;;6267144;28;20483;-69
2023/07/07 12:35:53;;;;;;;11.20;4.28;;;23.20;51.50;;;;;;6269944;28;20025;-69
2023/07/07 12:38:57;;;;;;;9.95;3.40;;;23.20;51.30;;;;;;6269109;28;20094;-69
2023/07/07 12:41:58;;;;;;;11.25;3.30;;;23.20;51.30;;;;;;6269716;28;20094;-69
2023/07/07 12:45:28;;;;;;;9.23;3.08;;;23.20;51.30;;;;;;6269800;28;20484;-69
2023/07/07 12:48:29;;;;;;;9.68;3.40;;;23.20;51.20;;;;;;6269250;28;20033;-69
2023/07/07 12:51:36;;;;;;;6.82;3.20;;;23.20;52.00;;;;;;6268809;28;20033;-69
2023/07/07 12:54:36;;;;;;;8.05;3.30;;;23.20;51.20;;;;;;6269251;28;20071;-69
2023/07/07 12:57:37;;;;;;;9.20;3.20;;;23.20;51.20;;;;;;6248107;28;20497;-69
2023/07/07 13:00:40;;;;;;;8.25;3.22;;;23.20;51.20;;;;;;6269975;28;20025;-69
2023/07/07 13:04:05;;;;;;;7.25;2.97;;;23.20;51.20;;;;;;6269409;28;20072;-69
2023/07/07 13:07:06;;;;;;;8.33;3.13;;;23.20;51.20;;;;;;6252679;28;20383;-69
2023/07/07 13:10:42;;;;;;;6.18;3.08;;;23.20;51.20;;;;;;6266011;28;20106;-69
2023/07/07 13:13:45;;;;;;;6.72;3.00;;;23.20;51.00;;;;;;6269615;28;20067;-71
2023/07/07 13:16:45;;;;;;;12.15;3.08;;;23.30;51.20;;;;;;6254839;28;20112;-69
2023/07/07 13:19:55;;;;;;;7.00;3.10;;;23.30;50.80;;;;;;6262019;28;20021;-69
2023/07/07 13:23:08;;;;;;;8.15;3.17;;;23.30;51.00;;;;;;6268435;28;20024;-69
2023/07/07 13:26:26;;;;;;;9.02;3.05;;;23.20;51.20;;;;;;6268393;28;20071;-69
2023/07/07 13:29:27;;;;;;;8.30;3.17;;;23.30;51.20;;;;;;6268227;28;20507;-69
2023/07/07 13:32:32;;;;;;;8.50;3.28;;;23.20;51.00;;;;;;6269016;28;20186;-69
2023/07/07 13:35:36;;;;;;;5.53;2.80;;;23.20;50.90;;;;;;6268913;28;20067;-69
2023/07/07 13:38:46;;;;;;;6.60;3.03;;;23.20;50.90;;;;;;6267840;28;20100;-69
2023/07/07 13:41:47;;;;;;;7.78;2.45;;;23.30;50.90;;;;;;6268740;28;20079;-69
2023/07/07 13:44:58;;;;;;;7.72;2.75;;;23.20;50.80;;;;;;6268362;28;20029;-69
2023/07/07 13:47:58;;;;;;;5.93;2.55;;;23.20;50.80;;;;;;6267931;28;20098;-69
2023/07/07 13:51:11;;;;;;;6.88;2.78;;;23.20;50.70;;;;;;6268298;28;20066;-69
2023/07/07 13:54:16;;;;;;;6.50;3.00;;;23.30;50.80;;;;;;6268036;28;20496;-69
2023/07/07 13:57:29;;;;;;;5.43;2.42;;;23.20;50.70;;;;;;6268799;28;20024;-69
2023/07/07 14:00:36;;;;;;;6.43;2.45;;;23.20;50.60;;;;;;6267893;28;20183;-69
2023/07/07 14:03:36;;;;;;;7.95;3.00;;;23.30;50.70;;;;;;6267625;28;20025;-69
2023/07/07 14:06:38;;;;;;;8.00;2.88;;;23.20;50.60;;;;;;6268232;28;20094;-69
2023/07/07 14:09:43;;;;;;;8.27;2.95;;;23.20;50.60;;;;;;6267401;28;20116;-69
2023/07/07 14:12:43;;;;;;;;;;;23.20;50.50;;;;;;6268728;28;20068;-70
2023/07/07 14:15:50;;;;;;;4.50;2.10;;;23.20;50.50;;;;;;6266879;28;20368;-69
2023/07/07 14:19:02;;;;;;;6.15;2.17;;;23.20;50.40;;;;;;6268292;28;20018;-69
2023/07/07 14:22:05;;;;;;;7.80;2.63;;;23.30;50.50;;;;;;6267571;28;20039;-70
2023/07/07 14:25:10;;;;;;;6.63;2.58;;;23.20;50.40;;;;;;6267188;28;20073;-69
2023/07/07 14:28:17;;;;;;;3.72;2.17;;;23.30;50.50;;;;;;6267414;28;20527;-69
2023/07/07 14:31:18;;;;;;;4.97;2.17;;;23.30;50.40;;;;;;6267311;28;20158;-69
2023/07/07 14:34:19;;;;;;;6.25;2.65;;;23.30;50.40;;;;;;6267973;28;20522;-69
2023/07/07 14:37:53;;;;;;;3.60;2.40;;;23.20;50.30;;;;;;6267085;28;20241;-69
2023/07/07 14:40:55;;;;;;;4.72;2.30;;;23.20;50.20;;;;;;6267527;28;20029;-70
2023/07/07 14:43:55;;;;;;;4.15;2.50;;;23.20;50.30;;;;;;6268283;28;20033;-70
2023/07/07 14:46:56;;;;;;;4.63;2.47;;;23.30;50.30;;;;;;6267494;28;20110;-69
2023/07/07 14:50:05;;;;;;;5.80;2.10;;;23.30;50.30;;;;;;6264522;28;20053;-70
2023/07/07 14:53:15;;;;;;;4.38;2.00;;;23.30;50.30;;;;;;6259926;28;20399;-69
2023/07/07 14:56:27;;;;;;;5.93;2.17;;;23.30;50.20;;;;;;6266897;28;20105;-69
2023/07/07 14:59:34;;;;;;;5.07;1.88;;;23.20;50.90;;;;;;6267737;28;20064;-69
2023/07/07 15:02:36;;;;;;;3.88;2.20;;;23.30;50.30;;;;;;6249353;28;20403;-69
2023/07/07 15:05:36;;;;;;;3.50;2.08;;;23.20;50.20;;;;;;6261543;28;20522;-69
2023/07/07 15:08:41;;;;;;;4.57;2.25;;;23.30;50.10;;;;;;6267209;28;20025;-72
2023/07/07 15:11:42;;;;;;;;;;;23.30;50.30;;;;;;6267383;28;20025;-69
2023/07/07 15:14:42;;;;;;;6.88;2.38;;;23.40;49.90;;;;;;6270453;28;19932;-69
2023/07/07 15:17:43;;;;;;;3.70;1.90;;;23.40;49.60;;;;;;6254658;28;20499;-69
2023/07/07 15:20:47;;;;;;;6.28;1.83;;;23.40;50.00;;;;;;6271998;28;20025;-69
2023/07/07 15:23:48;;;;;;;6.63;1.90;;;23.40;50.00;;;;;;6272258;28;20028;-70
2023/07/07 15:26:50;;;;;;;5.22;1.90;;;23.40;50.00;;;;;;6271460;28;20033;-70
2023/07/07 15:29:50;;;;;;;3.75;2.08;;;23.30;50.00;;;;;;6268539;28;20128;-69
2023/07/07 15:32:51;;;;;;;3.25;1.80;;;23.30;50.00;;;;;;6271559;28;20085;-69
2023/07/07 15:35:54;;;;;;;5.63;1.95;;;23.30;50.00;;;;;;6272155;28;20052;-69
2023/07/07 15:38:56;;;;;;;2.80;1.65;;;23.30;49.90;;;;;;6271638;28;20029;-70
2023/07/07 15:41:57;;;;;;;3.30;1.50;;;23.30;49.90;;;;;;6268129;28;20387;-69
2023/07/07 15:44:57;;;;;;;3.75;1.80;;;23.30;49.80;;;;;;6271137;28;20037;-70
2023/07/07 15:47:58;;;;;;;3.97;1.83;;;23.30;49.90;;;;;;6270704;28;20021;-69
2023/07/07 15:50:58;;;;;;;2.00;1.55;;;23.30;49.80;;;;;;6271286;28;20016;-70
2023/07/07 15:54:01;;;;;;;5.55;1.52;;;23.30;49.80;;;;;;6270803;28;20027;-70
2023/07/07 15:57:02;;;;;;;4.00;1.67;;;23.30;49.80;;;;;;6270740;28;20018;-69
2023/07/07 16:00:29;;;;;;;2.67;1.73;;;23.30;49.70;;;;;;6271016;28;20057;-69
2023/07/07 16:03:30;;;;;;;2.00;1.30;;;23.30;49.70;;;;;;6270629;28;20029;-69
2023/07/07 16:06:31;;;;;;;2.72;1.63;;;23.30;49.70;;;;;;6270757;28;20113;-69